sensor_id;sensor_type;location;lat;lon;timestamp;P1;durP1;ratioP1;P2;durP2;ratioP2
8001;SDS011;4046;48.774;8.732;2023-08-21T00:01:13;5.90;;;5.50;;
8001;SDS011;4046;48.774;8.732;2023-08-21T00:03:38;5.57;;;5.27;;
8001;SDS011;4046;48.774;8.732;2023-08-21T00:06:04;6.30;;;5.90;;
8001;SDS011;4046;48.774;8.732;2023-08-21T00:08:30;6.70;;;6.20;;
8001;SDS011;4046;48.774;8.732;2023-08-21T00:10:55;6.40;;;6.00;;
8001;SDS011;4046;48.774;8.732;2023-08-21T00:13:21;6.00;;;5.63;;
8001;SDS011;4046;48.774;8.732;2023-08-21T00:15:47;6.40;;;6.00;;
8001;SDS011;4046;48.774;8.732;2023-08-21T00:18:13;6.27;;;5.87;;
8001;SDS011;4046;48.774;8.732;2023-08-21T00:20:39;6.17;;;5.77;;
8001;SDS011;4046;48.774;8.732;2023-08-21T00:23:07;5.37;;;4.97;;
8001;SDS011;4046;48.774;8.732;2023-08-21T00:25:33;5.70;;;5.30;;
8001;SDS011;4046;48.774;8.732;2023-08-21T00:28:00;6.07;;;5.63;;
8001;SDS011;4046;48.774;8.732;2023-08-21T00:30:26;6.27;;;5.93;;
8001;SDS011;4046;48.774;8.732;2023-08-21T00:32:51;6.10;;;5.80;;
8001;SDS011;4046;48.774;8.732;2023-08-21T00:35:17;6.17;;;5.67;;
8001;SDS011;4046;48.774;8.732;2023-08-21T00:37:43;5.57;;;5.27;;
8001;SDS011;4046;48.774;8.732;2023-08-21T00:40:09;6.47;;;6.07;;
8001;SDS011;4046;48.774;8.732;2023-08-21T00:42:35;5.60;;;5.30;;
8001;SDS011;4046;48.774;8.732;2023-08-21T00:45:00;6.20;;;5.80;;
8001;SDS011;4046;48.774;8.732;2023-08-21T00:47:26;6.43;;;5.93;;
8001;SDS011;4046;48.774;8.732;2023-08-21T00:49:52;5.73;;;5.43;;
8001;SDS011;4046;48.774;8.732;2023-08-21T00:52:18;5.90;;;5.50;;
8001;SDS011;4046;48.774;8.732;2023-08-21T00:54:44;5.73;;;5.33;;
8001;SDS011;4046;48.774;8.732;2023-08-21T00:57:10;6.07;;;5.77;;
8001;SDS011;4046;48.774;8.732;2023-08-21T00:59:37;5.60;;;5.23;;
8001;SDS011;4046;48.774;8.732;2023-08-21T01:02:03;6.03;;;5.63;;
8001;SDS011;4046;48.774;8.732;2023-08-21T01:04:29;5.77;;;5.47;;
8001;SDS011;4046;48.774;8.732;2023-08-21T01:06:56;5.80;;;5.50;;
8001;SDS011;4046;48.774;8.732;2023-08-21T01:09:27;6.07;;;5.60;;
8001;SDS011;4046;48.774;8.732;2023-08-21T01:14:59;6.10;;;5.70;;
8001;SDS011;4046;48.774;8.732;2023-08-21T01:17:29;6.10;;;5.73;;
8001;SDS011;4046;48.774;8.732;2023-08-21T01:19:55;6.40;;;5.80;;
8001;SDS011;4046;48.774;8.732;2023-08-21T01:22:34;6.13;;;5.83;;
8001;SDS011;4046;48.774;8.732;2023-08-21T01:25:04;5.50;;;5.10;;
8001;SDS011;4046;48.774;8.732;2023-08-21T01:27:31;5.50;;;5.20;;
8001;SDS011;4046;48.774;8.732;2023-08-21T01:29:58;5.40;;;5.10;;
8001;SDS011;4046;48.774;8.732;2023-08-21T01:35:30;5.90;;;5.50;;
8001;SDS011;4046;48.774;8.732;2023-08-21T01:37:56;5.87;;;5.53;;
8001;SDS011;4046;48.774;8.732;2023-08-21T01:40:23;5.93;;;5.50;;
8001;SDS011;4046;48.774;8.732;2023-08-21T01:42:49;5.50;;;5.20;;
8001;SDS011;4046;48.774;8.732;2023-08-21T01:45:15;6.13;;;5.77;;
8001;SDS011;4046;48.774;8.732;2023-08-21T01:47:41;6.50;;;6.10;;
8001;SDS011;4046;48.774;8.732;2023-08-21T01:50:07;5.53;;;5.23;;
8001;SDS011;4046;48.774;8.732;2023-08-21T01:52:33;5.70;;;5.40;;
8001;SDS011;4046;48.774;8.732;2023-08-21T01:54:59;5.53;;;5.23;;
8001;SDS011;4046;48.774;8.732;2023-08-21T01:57:25;5.47;;;5.10;;
8001;SDS011;4046;48.774;8.732;2023-08-21T01:59:50;6.10;;;5.70;;
8001;SDS011;4046;48.774;8.732;2023-08-21T02:02:16;6.27;;;5.87;;
8001;SDS011;4046;48.774;8.732;2023-08-21T02:04:42;5.33;;;5.00;;
8001;SDS011;4046;48.774;8.732;2023-08-21T02:07:07;5.90;;;5.60;;
8001;SDS011;4046;48.774;8.732;2023-08-21T02:09:34;5.93;;;5.53;;
8001;SDS011;4046;48.774;8.732;2023-08-21T02:12:00;5.33;;;5.03;;
8001;SDS011;4046;48.774;8.732;2023-08-21T02:14:26;5.47;;;5.17;;
8001;SDS011;4046;48.774;8.732;2023-08-21T02:16:51;5.77;;;5.47;;
8001;SDS011;4046;48.774;8.732;2023-08-21T02:19:17;5.27;;;4.97;;
8001;SDS011;4046;48.774;8.732;2023-08-21T02:21:43;5.70;;;5.40;;
8001;SDS011;4046;48.774;8.732;2023-08-21T02:24:09;5.37;;;5.07;;
8001;SDS011;4046;48.774;8.732;2023-08-21T02:26:34;5.87;;;5.50;;
8001;SDS011;4046;48.774;8.732;2023-08-21T02:29:01;6.13;;;5.73;;
8001;SDS011;4046;48.774;8.732;2023-08-21T02:31:26;5.87;;;5.50;;
8001;SDS011;4046;48.774;8.732;2023-08-21T02:33:53;5.83;;;5.40;;
8001;SDS011;4046;48.774;8.732;2023-08-21T02:36:18;5.83;;;5.53;;
8001;SDS011;4046;48.774;8.732;2023-08-21T02:38:44;5.50;;;5.20;;
8001;SDS011;4046;48.774;8.732;2023-08-21T02:41:10;6.37;;;5.87;;
8001;SDS011;4046;48.774;8.732;2023-08-21T02:43:36;5.53;;;5.13;;
8001;SDS011;4046;48.774;8.732;2023-08-21T02:46:01;5.63;;;5.33;;
8001;SDS011;4046;48.774;8.732;2023-08-21T02:48:27;5.53;;;5.23;;
8001;SDS011;4046;48.774;8.732;2023-08-21T02:50:52;5.77;;;5.47;;
8001;SDS011;4046;48.774;8.732;2023-08-21T02:53:18;5.67;;;5.37;;
8001;SDS011;4046;48.774;8.732;2023-08-21T02:55:44;6.47;;;5.47;;
8001;SDS011;4046;48.774;8.732;2023-08-21T02:58:10;5.47;;;5.07;;
8001;SDS011;4046;48.774;8.732;2023-08-21T03:00:36;5.37;;;5.07;;
8001;SDS011;4046;48.774;8.732;2023-08-21T03:03:02;6.10;;;5.70;;
8001;SDS011;4046;48.774;8.732;2023-08-21T03:05:29;5.80;;;5.40;;
8001;SDS011;4046;48.774;8.732;2023-08-21T03:07:55;6.07;;;5.67;;
8001;SDS011;4046;48.774;8.732;2023-08-21T03:10:20;5.63;;;5.23;;
8001;SDS011;4046;48.774;8.732;2023-08-21T03:12:48;6.07;;;5.67;;
8001;SDS011;4046;48.774;8.732;2023-08-21T03:15:13;6.00;;;5.60;;
8001;SDS011;4046;48.774;8.732;2023-08-21T03:17:39;5.57;;;5.27;;
8001;SDS011;4046;48.774;8.732;2023-08-21T03:20:06;5.50;;;5.20;;
8001;SDS011;4046;48.774;8.732;2023-08-21T03:22:32;5.23;;;4.93;;
8001;SDS011;4046;48.774;8.732;2023-08-21T03:24:58;5.43;;;5.10;;
8001;SDS011;4046;48.774;8.732;2023-08-21T03:27:24;5.37;;;4.97;;
8001;SDS011;4046;48.774;8.732;2023-08-21T03:29:50;5.43;;;5.13;;
8001;SDS011;4046;48.774;8.732;2023-08-21T03:32:16;5.40;;;5.10;;
8001;SDS011;4046;48.774;8.732;2023-08-21T03:34:42;5.27;;;4.97;;
8001;SDS011;4046;48.774;8.732;2023-08-21T03:37:08;5.93;;;5.53;;
8001;SDS011;4046;48.774;8.732;2023-08-21T03:39:35;5.30;;;5.00;;
8001;SDS011;4046;48.774;8.732;2023-08-21T03:42:00;5.47;;;5.17;;
8001;SDS011;4046;48.774;8.732;2023-08-21T03:44:26;6.00;;;5.60;;
8001;SDS011;4046;48.774;8.732;2023-08-21T03:46:52;5.63;;;5.33;;
8001;SDS011;4046;48.774;8.732;2023-08-21T03:49:18;5.40;;;5.10;;
8001;SDS011;4046;48.774;8.732;2023-08-21T03:51:43;5.93;;;5.43;;
8001;SDS011;4046;48.774;8.732;2023-08-21T03:54:09;5.87;;;5.47;;
8001;SDS011;4046;48.774;8.732;2023-08-21T03:56:36;6.20;;;5.70;;
8001;SDS011;4046;48.774;8.732;2023-08-21T03:59:02;5.73;;;5.33;;
8001;SDS011;4046;48.774;8.732;2023-08-21T04:01:27;5.73;;;5.33;;
8001;SDS011;4046;48.774;8.732;2023-08-21T04:03:53;5.20;;;4.90;;
8001;SDS011;4046;48.774;8.732;2023-08-21T04:06:19;5.60;;;5.30;;
8001;SDS011;4046;48.774;8.732;2023-08-21T04:08:45;5.57;;;5.27;;
8001;SDS011;4046;48.774;8.732;2023-08-21T04:11:10;5.60;;;5.30;;
8001;SDS011;4046;48.774;8.732;2023-08-21T04:13:36;5.30;;;4.80;;
8001;SDS011;4046;48.774;8.732;2023-08-21T04:16:02;5.50;;;5.10;;
8001;SDS011;4046;48.774;8.732;2023-08-21T04:18:28;6.57;;;6.07;;
8001;SDS011;4046;48.774;8.732;2023-08-21T04:20:54;5.33;;;4.90;;
8001;SDS011;4046;48.774;8.732;2023-08-21T04:23:19;5.80;;;5.50;;
8001;SDS011;4046;48.774;8.732;2023-08-21T04:25:45;5.23;;;4.87;;
8001;SDS011;4046;48.774;8.732;2023-08-21T04:28:11;5.27;;;4.87;;
8001;SDS011;4046;48.774;8.732;2023-08-21T04:30:39;5.80;;;5.40;;
8001;SDS011;4046;48.774;8.732;2023-08-21T04:33:06;5.63;;;5.33;;
8001;SDS011;4046;48.774;8.732;2023-08-21T04:35:35;5.40;;;5.03;;
8001;SDS011;4046;48.774;8.732;2023-08-21T04:38:04;5.63;;;5.27;;
8001;SDS011;4046;48.774;8.732;2023-08-21T04:40:30;5.60;;;5.30;;
8001;SDS011;4046;48.774;8.732;2023-08-21T04:42:55;5.20;;;4.90;;
8001;SDS011;4046;48.774;8.732;2023-08-21T04:45:21;5.73;;;5.23;;
8001;SDS011;4046;48.774;8.732;2023-08-21T04:47:47;5.40;;;5.10;;
8001;SDS011;4046;48.774;8.732;2023-08-21T04:50:13;5.70;;;5.30;;
8001;SDS011;4046;48.774;8.732;2023-08-21T04:52:40;6.00;;;5.60;;
8001;SDS011;4046;48.774;8.732;2023-08-21T04:55:06;6.13;;;5.53;;
8001;SDS011;4046;48.774;8.732;2023-08-21T04:57:32;6.30;;;5.70;;
8001;SDS011;4046;48.774;8.732;2023-08-21T04:59:58;5.50;;;5.20;;
8001;SDS011;4046;48.774;8.732;2023-08-21T05:02:24;5.80;;;5.40;;
8001;SDS011;4046;48.774;8.732;2023-08-21T05:04:49;5.77;;;5.37;;
8001;SDS011;4046;48.774;8.732;2023-08-21T05:07:15;5.67;;;5.10;;
8001;SDS011;4046;48.774;8.732;2023-08-21T05:09:41;5.30;;;5.00;;
8001;SDS011;4046;48.774;8.732;2023-08-21T05:12:07;5.30;;;4.97;;
8001;SDS011;4046;48.774;8.732;2023-08-21T05:14:33;5.50;;;5.20;;
8001;SDS011;4046;48.774;8.732;2023-08-21T05:16:58;5.93;;;5.47;;
8001;SDS011;4046;48.774;8.732;2023-08-21T05:19:24;5.07;;;4.77;;
8001;SDS011;4046;48.774;8.732;2023-08-21T05:21:50;5.37;;;5.07;;
8001;SDS011;4046;48.774;8.732;2023-08-21T05:24:15;5.23;;;4.93;;
8001;SDS011;4046;48.774;8.732;2023-08-21T05:26:41;5.50;;;5.20;;
8001;SDS011;4046;48.774;8.732;2023-08-21T05:29:07;5.57;;;5.27;;
8001;SDS011;4046;48.774;8.732;2023-08-21T05:31:33;5.83;;;5.40;;
8001;SDS011;4046;48.774;8.732;2023-08-21T05:33:59;5.80;;;5.40;;
8001;SDS011;4046;48.774;8.732;2023-08-21T05:36:24;6.00;;;5.60;;
8001;SDS011;4046;48.774;8.732;2023-08-21T05:38:50;5.60;;;5.30;;
8001;SDS011;4046;48.774;8.732;2023-08-21T05:41:16;5.97;;;5.57;;
8001;SDS011;4046;48.774;8.732;2023-08-21T05:43:42;6.00;;;5.60;;
8001;SDS011;4046;48.774;8.732;2023-08-21T05:46:08;5.30;;;5.00;;
8001;SDS011;4046;48.774;8.732;2023-08-21T05:48:34;5.40;;;5.00;;
8001;SDS011;4046;48.774;8.732;2023-08-21T05:51:00;5.60;;;5.30;;
8001;SDS011;4046;48.774;8.732;2023-08-21T05:53:25;5.30;;;5.00;;
8001;SDS011;4046;48.774;8.732;2023-08-21T05:55:52;5.87;;;5.47;;
8001;SDS011;4046;48.774;8.732;2023-08-21T05:58:18;6.07;;;5.67;;
8001;SDS011;4046;48.774;8.732;2023-08-21T06:00:44;5.70;;;5.30;;
8001;SDS011;4046;48.774;8.732;2023-08-21T06:03:11;5.90;;;5.50;;
8001;SDS011;4046;48.774;8.732;2023-08-21T06:05:37;5.50;;;5.07;;
8001;SDS011;4046;48.774;8.732;2023-08-21T06:08:02;5.50;;;5.20;;
8001;SDS011;4046;48.774;8.732;2023-08-21T06:10:30;5.80;;;5.40;;
8001;SDS011;4046;48.774;8.732;2023-08-21T06:12:56;6.03;;;5.50;;
8001;SDS011;4046;48.774;8.732;2023-08-21T06:15:22;5.30;;;5.00;;
8001;SDS011;4046;48.774;8.732;2023-08-21T06:17:48;5.77;;;5.47;;
8001;SDS011;4046;48.774;8.732;2023-08-21T06:20:13;5.77;;;5.37;;
8001;SDS011;4046;48.774;8.732;2023-08-21T06:22:39;5.70;;;5.20;;
8001;SDS011;4046;48.774;8.732;2023-08-21T06:25:05;6.57;;;5.93;;
8001;SDS011;4046;48.774;8.732;2023-08-21T06:27:31;5.57;;;5.27;;
8001;SDS011;4046;48.774;8.732;2023-08-21T06:29:57;6.37;;;5.97;;
8001;SDS011;4046;48.774;8.732;2023-08-21T06:32:23;5.57;;;5.27;;
8001;SDS011;4046;48.774;8.732;2023-08-21T06:34:48;5.70;;;5.30;;
8001;SDS011;4046;48.774;8.732;2023-08-21T06:37:14;6.23;;;5.10;;
8001;SDS011;4046;48.774;8.732;2023-08-21T06:39:40;5.87;;;5.47;;
8001;SDS011;4046;48.774;8.732;2023-08-21T06:42:05;5.60;;;5.30;;
8001;SDS011;4046;48.774;8.732;2023-08-21T06:44:31;5.53;;;5.13;;
8001;SDS011;4046;48.774;8.732;2023-08-21T06:46:57;5.80;;;5.40;;
8001;SDS011;4046;48.774;8.732;2023-08-21T06:49:22;5.83;;;5.53;;
8001;SDS011;4046;48.774;8.732;2023-08-21T06:51:48;5.70;;;5.30;;
8001;SDS011;4046;48.774;8.732;2023-08-21T06:54:15;5.67;;;5.27;;
8001;SDS011;4046;48.774;8.732;2023-08-21T06:56:40;5.80;;;5.40;;
8001;SDS011;4046;48.774;8.732;2023-08-21T06:59:06;5.27;;;4.97;;
8001;SDS011;4046;48.774;8.732;2023-08-21T07:01:32;6.23;;;5.63;;
8001;SDS011;4046;48.774;8.732;2023-08-21T07:03:58;5.30;;;5.00;;
8001;SDS011;4046;48.774;8.732;2023-08-21T07:06:23;6.07;;;5.57;;
8001;SDS011;4046;48.774;8.732;2023-08-21T07:08:49;5.60;;;5.20;;
8001;SDS011;4046;48.774;8.732;2023-08-21T07:11:15;5.73;;;5.43;;
8001;SDS011;4046;48.774;8.732;2023-08-21T07:13:42;5.40;;;5.03;;
8001;SDS011;4046;48.774;8.732;2023-08-21T07:16:08;6.10;;;5.60;;
8001;SDS011;4046;48.774;8.732;2023-08-21T07:18:34;5.20;;;4.90;;
8001;SDS011;4046;48.774;8.732;2023-08-21T07:21:02;5.20;;;4.90;;
8001;SDS011;4046;48.774;8.732;2023-08-21T07:23:29;5.63;;;5.23;;
8001;SDS011;4046;48.774;8.732;2023-08-21T07:25:55;6.13;;;5.73;;
8001;SDS011;4046;48.774;8.732;2023-08-21T07:28:22;5.20;;;4.90;;
8001;SDS011;4046;48.774;8.732;2023-08-21T07:30:48;5.80;;;5.50;;
8001;SDS011;4046;48.774;8.732;2023-08-21T07:33:19;5.40;;;5.10;;
8001;SDS011;4046;48.774;8.732;2023-08-21T07:35:44;5.93;;;5.53;;
8001;SDS011;4046;48.774;8.732;2023-08-21T07:38:10;5.90;;;5.50;;
8001;SDS011;4046;48.774;8.732;2023-08-21T07:40:36;5.57;;;5.13;;
8001;SDS011;4046;48.774;8.732;2023-08-21T07:43:02;5.83;;;5.50;;
8001;SDS011;4046;48.774;8.732;2023-08-21T07:45:28;5.43;;;5.13;;
8001;SDS011;4046;48.774;8.732;2023-08-21T07:47:53;5.50;;;5.20;;
8001;SDS011;4046;48.774;8.732;2023-08-21T07:50:19;5.70;;;5.40;;
8001;SDS011;4046;48.774;8.732;2023-08-21T07:52:45;5.37;;;4.97;;
8001;SDS011;4046;48.774;8.732;2023-08-21T07:55:12;5.10;;;4.80;;
8001;SDS011;4046;48.774;8.732;2023-08-21T07:57:37;5.50;;;5.20;;
8001;SDS011;4046;48.774;8.732;2023-08-21T08:00:03;5.57;;;5.17;;
8001;SDS011;4046;48.774;8.732;2023-08-21T08:02:33;5.33;;;5.03;;
8001;SDS011;4046;48.774;8.732;2023-08-21T08:04:59;5.40;;;5.10;;
8001;SDS011;4046;48.774;8.732;2023-08-21T08:07:25;5.20;;;4.90;;
8001;SDS011;4046;48.774;8.732;2023-08-21T08:09:51;5.50;;;5.20;;
8001;SDS011;4046;48.774;8.732;2023-08-21T08:12:16;5.30;;;5.00;;
8001;SDS011;4046;48.774;8.732;2023-08-21T08:14:42;5.30;;;4.90;;
8001;SDS011;4046;48.774;8.732;2023-08-21T08:17:08;5.43;;;5.03;;
8001;SDS011;4046;48.774;8.732;2023-08-21T08:19:34;5.30;;;4.90;;
8001;SDS011;4046;48.774;8.732;2023-08-21T08:22:00;5.40;;;5.00;;
8001;SDS011;4046;48.774;8.732;2023-08-21T08:24:25;5.63;;;5.33;;
8001;SDS011;4046;48.774;8.732;2023-08-21T08:26:52;5.13;;;4.83;;
8001;SDS011;4046;48.774;8.732;2023-08-21T08:29:18;5.40;;;5.10;;
8001;SDS011;4046;48.774;8.732;2023-08-21T08:31:43;5.60;;;5.20;;
8001;SDS011;4046;48.774;8.732;2023-08-21T08:34:09;5.33;;;4.93;;
8001;SDS011;4046;48.774;8.732;2023-08-21T08:36:35;5.10;;;4.80;;
8001;SDS011;4046;48.774;8.732;2023-08-21T08:39:00;5.20;;;4.90;;
8001;SDS011;4046;48.774;8.732;2023-08-21T08:41:43;5.27;;;4.97;;
8001;SDS011;4046;48.774;8.732;2023-08-21T08:44:16;5.20;;;4.90;;
8001;SDS011;4046;48.774;8.732;2023-08-21T08:46:42;5.30;;;5.00;;
8001;SDS011;4046;48.774;8.732;2023-08-21T08:49:08;5.00;;;4.70;;
8001;SDS011;4046;48.774;8.732;2023-08-21T08:51:34;5.30;;;5.00;;
8001;SDS011;4046;48.774;8.732;2023-08-21T08:54:02;5.10;;;4.80;;
8001;SDS011;4046;48.774;8.732;2023-08-21T08:56:29;5.40;;;5.10;;
8001;SDS011;4046;48.774;8.732;2023-08-21T08:58:54;5.30;;;5.00;;
8001;SDS011;4046;48.774;8.732;2023-08-21T09:01:20;5.23;;;4.83;;
8001;SDS011;4046;48.774;8.732;2023-08-21T09:03:46;4.83;;;4.53;;
8001;SDS011;4046;48.774;8.732;2023-08-21T09:06:12;4.90;;;4.60;;
8001;SDS011;4046;48.774;8.732;2023-08-21T09:08:37;5.20;;;4.90;;
8001;SDS011;4046;48.774;8.732;2023-08-21T09:11:03;5.10;;;4.80;;
8001;SDS011;4046;48.774;8.732;2023-08-21T09:13:29;4.60;;;4.30;;
8001;SDS011;4046;48.774;8.732;2023-08-21T09:15:57;4.80;;;4.57;;
8001;SDS011;4046;48.774;8.732;2023-08-21T09:18:24;5.23;;;4.83;;
8001;SDS011;4046;48.774;8.732;2023-08-21T09:20:50;4.90;;;4.60;;
8001;SDS011;4046;48.774;8.732;2023-08-21T09:23:16;5.20;;;4.80;;
8001;SDS011;4046;48.774;8.732;2023-08-21T09:25:47;4.77;;;4.47;;
8001;SDS011;4046;48.774;8.732;2023-08-21T09:28:13;4.60;;;4.40;;
8001;SDS011;4046;48.774;8.732;2023-08-21T09:30:43;4.93;;;4.63;;
8001;SDS011;4046;48.774;8.732;2023-08-21T09:33:10;5.03;;;4.73;;
8001;SDS011;4046;48.774;8.732;2023-08-21T09:35:36;4.90;;;4.60;;
8001;SDS011;4046;48.774;8.732;2023-08-21T09:38:01;5.00;;;4.60;;
8001;SDS011;4046;48.774;8.732;2023-08-21T09:40:27;4.87;;;4.47;;
8001;SDS011;4046;48.774;8.732;2023-08-21T09:42:53;4.30;;;4.00;;
8001;SDS011;4046;48.774;8.732;2023-08-21T09:45:24;4.67;;;4.37;;
8001;SDS011;4046;48.774;8.732;2023-08-21T09:47:54;5.10;;;4.80;;
8001;SDS011;4046;48.774;8.732;2023-08-21T09:50:20;4.50;;;4.30;;
8001;SDS011;4046;48.774;8.732;2023-08-21T09:52:46;5.03;;;4.60;;
8001;SDS011;4046;48.774;8.732;2023-08-21T09:55:13;4.90;;;4.60;;
8001;SDS011;4046;48.774;8.732;2023-08-21T09:57:40;5.20;;;4.83;;
8001;SDS011;4046;48.774;8.732;2023-08-21T10:00:06;4.30;;;4.10;;
8001;SDS011;4046;48.774;8.732;2023-08-21T10:02:46;4.70;;;4.40;;
8001;SDS011;4046;48.774;8.732;2023-08-21T10:05:16;4.50;;;4.20;;
8001;SDS011;4046;48.774;8.732;2023-08-21T10:07:49;4.80;;;4.50;;
8001;SDS011;4046;48.774;8.732;2023-08-21T10:10:16;4.80;;;4.50;;
8001;SDS011;4046;48.774;8.732;2023-08-21T10:12:42;5.00;;;4.70;;
8001;SDS011;4046;48.774;8.732;2023-08-21T10:15:08;5.00;;;4.70;;
8001;SDS011;4046;48.774;8.732;2023-08-21T10:17:35;5.40;;;5.00;;
8001;SDS011;4046;48.774;8.732;2023-08-21T10:20:02;5.30;;;4.90;;
8001;SDS011;4046;48.774;8.732;2023-08-21T10:22:36;4.83;;;4.50;;
8001;SDS011;4046;48.774;8.732;2023-08-21T10:25:19;5.00;;;4.70;;
8001;SDS011;4046;48.774;8.732;2023-08-21T10:27:55;4.27;;;4.07;;
8001;SDS011;4046;48.774;8.732;2023-08-21T10:30:26;4.57;;;4.27;;
8001;SDS011;4046;48.774;8.732;2023-08-21T10:32:54;4.70;;;4.40;;
8001;SDS011;4046;48.774;8.732;2023-08-21T10:35:22;4.60;;;4.30;;
8001;SDS011;4046;48.774;8.732;2023-08-21T10:41:08;4.20;;;4.00;;
8001;SDS011;4046;48.774;8.732;2023-08-21T10:43:39;4.67;;;4.47;;
8001;SDS011;4046;48.774;8.732;2023-08-21T10:46:07;4.53;;;4.20;;
8001;SDS011;4046;48.774;8.732;2023-08-21T10:48:36;5.30;;;4.90;;
8001;SDS011;4046;48.774;8.732;2023-08-21T10:51:03;5.03;;;4.70;;
8001;SDS011;4046;48.774;8.732;2023-08-21T10:53:30;5.03;;;4.63;;
8001;SDS011;4046;48.774;8.732;2023-08-21T10:55:57;5.17;;;4.87;;
8001;SDS011;4046;48.774;8.732;2023-08-21T10:58:22;4.93;;;4.63;;
8001;SDS011;4046;48.774;8.732;2023-08-21T11:00:58;4.93;;;4.63;;
8001;SDS011;4046;48.774;8.732;2023-08-21T11:03:24;4.90;;;4.60;;
8001;SDS011;4046;48.774;8.732;2023-08-21T11:06:06;4.90;;;4.60;;
8001;SDS011;4046;48.774;8.732;2023-08-21T11:08:33;4.83;;;4.53;;
8001;SDS011;4046;48.774;8.732;2023-08-21T11:11:00;5.03;;;4.73;;
8001;SDS011;4046;48.774;8.732;2023-08-21T11:13:29;4.70;;;4.40;;
8001;SDS011;4046;48.774;8.732;2023-08-21T11:15:59;5.30;;;4.93;;
8001;SDS011;4046;48.774;8.732;2023-08-21T11:18:30;5.10;;;4.80;;
8001;SDS011;4046;48.774;8.732;2023-08-21T11:21:02;4.57;;;4.27;;
8001;SDS011;4046;48.774;8.732;2023-08-21T11:23:33;4.57;;;4.37;;
8001;SDS011;4046;48.774;8.732;2023-08-21T11:26:00;4.87;;;4.57;;
8001;SDS011;4046;48.774;8.732;2023-08-21T11:28:27;5.30;;;5.00;;
8001;SDS011;4046;48.774;8.732;2023-08-21T11:30:57;5.13;;;4.83;;
8001;SDS011;4046;48.774;8.732;2023-08-21T11:33:24;5.00;;;4.70;;
8001;SDS011;4046;48.774;8.732;2023-08-21T11:35:51;4.93;;;4.63;;
8001;SDS011;4046;48.774;8.732;2023-08-21T11:38:21;4.47;;;4.27;;
8001;SDS011;4046;48.774;8.732;2023-08-21T11:40:55;5.03;;;4.73;;
8001;SDS011;4046;48.774;8.732;2023-08-21T11:43:33;5.27;;;4.97;;
8001;SDS011;4046;48.774;8.732;2023-08-21T11:46:03;5.07;;;4.77;;
8001;SDS011;4046;48.774;8.732;2023-08-21T11:48:30;4.97;;;4.70;;
8001;SDS011;4046;48.774;8.732;2023-08-21T11:50:56;5.27;;;4.97;;
8001;SDS011;4046;48.774;8.732;2023-08-21T11:53:38;5.10;;;4.80;;
8001;SDS011;4046;48.774;8.732;2023-08-21T11:56:12;5.07;;;4.80;;
8001;SDS011;4046;48.774;8.732;2023-08-21T11:58:41;5.70;;;5.30;;
8001;SDS011;4046;48.774;8.732;2023-08-21T12:01:10;5.43;;;5.03;;
8001;SDS011;4046;48.774;8.732;2023-08-21T12:03:36;4.97;;;4.67;;
8001;SDS011;4046;48.774;8.732;2023-08-21T12:06:04;5.47;;;5.07;;
8001;SDS011;4046;48.774;8.732;2023-08-21T12:08:34;5.13;;;4.83;;
8001;SDS011;4046;48.774;8.732;2023-08-21T12:11:00;5.10;;;4.77;;
8001;SDS011;4046;48.774;8.732;2023-08-21T12:13:27;5.87;;;5.47;;
8001;SDS011;4046;48.774;8.732;2023-08-21T12:15:53;5.57;;;5.17;;
8001;SDS011;4046;48.774;8.732;2023-08-21T12:18:18;5.00;;;4.70;;
8001;SDS011;4046;48.774;8.732;2023-08-21T12:20:44;5.13;;;4.83;;
8001;SDS011;4046;48.774;8.732;2023-08-21T12:23:10;5.00;;;4.70;;
8001;SDS011;4046;48.774;8.732;2023-08-21T12:25:36;5.50;;;5.20;;
8001;SDS011;4046;48.774;8.732;2023-08-21T12:28:02;4.93;;;4.67;;
8001;SDS011;4046;48.774;8.732;2023-08-21T12:30:28;4.97;;;4.57;;
8001;SDS011;4046;48.774;8.732;2023-08-21T12:32:53;5.10;;;4.80;;
8001;SDS011;4046;48.774;8.732;2023-08-21T12:35:19;5.40;;;5.00;;
8001;SDS011;4046;48.774;8.732;2023-08-21T12:37:45;5.10;;;4.80;;
8001;SDS011;4046;48.774;8.732;2023-08-21T12:40:10;5.30;;;5.00;;
8001;SDS011;4046;48.774;8.732;2023-08-21T12:42:37;6.00;;;5.70;;
8001;SDS011;4046;48.774;8.732;2023-08-21T12:45:03;5.60;;;5.20;;
8001;SDS011;4046;48.774;8.732;2023-08-21T12:47:29;5.70;;;5.30;;
8001;SDS011;4046;48.774;8.732;2023-08-21T12:49:54;5.53;;;5.23;;
8001;SDS011;4046;48.774;8.732;2023-08-21T12:52:20;5.60;;;5.30;;
8001;SDS011;4046;48.774;8.732;2023-08-21T12:54:46;5.30;;;5.00;;
8001;SDS011;4046;48.774;8.732;2023-08-21T12:57:12;5.60;;;5.20;;
8001;SDS011;4046;48.774;8.732;2023-08-21T12:59:37;5.30;;;5.00;;
8001;SDS011;4046;48.774;8.732;2023-08-21T13:02:03;4.83;;;4.60;;
8001;SDS011;4046;48.774;8.732;2023-08-21T13:04:29;5.73;;;5.43;;
8001;SDS011;4046;48.774;8.732;2023-08-21T13:06:55;6.10;;;5.50;;
8001;SDS011;4046;48.774;8.732;2023-08-21T13:09:21;5.37;;;4.97;;
8001;SDS011;4046;48.774;8.732;2023-08-21T13:11:49;5.70;;;5.20;;
8001;SDS011;4046;48.774;8.732;2023-08-21T13:14:14;5.90;;;5.50;;
8001;SDS011;4046;48.774;8.732;2023-08-21T13:16:40;5.87;;;5.47;;
8001;SDS011;4046;48.774;8.732;2023-08-21T13:19:06;5.93;;;5.63;;
8001;SDS011;4046;48.774;8.732;2023-08-21T13:21:32;5.87;;;5.47;;
8001;SDS011;4046;48.774;8.732;2023-08-21T13:23:57;4.93;;;4.63;;
8001;SDS011;4046;48.774;8.732;2023-08-21T13:26:23;5.70;;;5.30;;
8001;SDS011;4046;48.774;8.732;2023-08-21T13:28:50;5.53;;;5.23;;
8001;SDS011;4046;48.774;8.732;2023-08-21T13:31:16;5.57;;;5.17;;
8001;SDS011;4046;48.774;8.732;2023-08-21T13:33:48;5.53;;;5.13;;
8001;SDS011;4046;48.774;8.732;2023-08-21T13:36:15;5.80;;;5.40;;
8001;SDS011;4046;48.774;8.732;2023-08-21T13:38:43;6.27;;;5.87;;
8001;SDS011;4046;48.774;8.732;2023-08-21T13:41:08;5.77;;;5.37;;
8001;SDS011;4046;48.774;8.732;2023-08-21T13:43:34;5.47;;;5.17;;
8001;SDS011;4046;48.774;8.732;2023-08-21T13:46:01;5.70;;;5.30;;
8001;SDS011;4046;48.774;8.732;2023-08-21T13:48:29;6.03;;;5.53;;
8001;SDS011;4046;48.774;8.732;2023-08-21T13:50:55;5.83;;;5.53;;
8001;SDS011;4046;48.774;8.732;2023-08-21T13:53:22;5.70;;;5.30;;
8001;SDS011;4046;48.774;8.732;2023-08-21T13:55:49;5.47;;;5.07;;
8001;SDS011;4046;48.774;8.732;2023-08-21T13:58:15;5.40;;;5.10;;
8001;SDS011;4046;48.774;8.732;2023-08-21T14:00:41;5.80;;;5.50;;
8001;SDS011;4046;48.774;8.732;2023-08-21T14:03:07;5.40;;;5.10;;
8001;SDS011;4046;48.774;8.732;2023-08-21T14:05:32;5.40;;;5.10;;
8001;SDS011;4046;48.774;8.732;2023-08-21T14:07:59;5.93;;;5.53;;
8001;SDS011;4046;48.774;8.732;2023-08-21T14:10:25;6.13;;;5.70;;
8001;SDS011;4046;48.774;8.732;2023-08-21T14:12:51;5.17;;;4.87;;
8001;SDS011;4046;48.774;8.732;2023-08-21T14:15:17;6.07;;;5.57;;
8001;SDS011;4046;48.774;8.732;2023-08-21T14:17:44;6.03;;;5.53;;
8001;SDS011;4046;48.774;8.732;2023-08-21T14:20:10;5.20;;;4.90;;
8001;SDS011;4046;48.774;8.732;2023-08-21T14:22:36;5.90;;;5.50;;
8001;SDS011;4046;48.774;8.732;2023-08-21T14:25:03;5.83;;;5.50;;
8001;SDS011;4046;48.774;8.732;2023-08-21T14:27:32;6.03;;;5.63;;
8001;SDS011;4046;48.774;8.732;2023-08-21T14:29:58;6.07;;;5.67;;
8001;SDS011;4046;48.774;8.732;2023-08-21T14:32:24;6.00;;;5.50;;
8001;SDS011;4046;48.774;8.732;2023-08-21T14:34:50;6.20;;;5.80;;
8001;SDS011;4046;48.774;8.732;2023-08-21T14:37:18;5.47;;;5.07;;
8001;SDS011;4046;48.774;8.732;2023-08-21T14:39:44;6.17;;;5.77;;
8001;SDS011;4046;48.774;8.732;2023-08-21T14:42:10;5.60;;;5.30;;
8001;SDS011;4046;48.774;8.732;2023-08-21T14:44:36;5.27;;;4.97;;
8001;SDS011;4046;48.774;8.732;2023-08-21T14:47:02;6.93;;;6.47;;
8001;SDS011;4046;48.774;8.732;2023-08-21T14:49:28;5.60;;;5.30;;
8001;SDS011;4046;48.774;8.732;2023-08-21T14:51:54;5.73;;;5.43;;
8001;SDS011;4046;48.774;8.732;2023-08-21T14:54:20;5.87;;;5.50;;
8001;SDS011;4046;48.774;8.732;2023-08-21T14:56:45;5.60;;;5.30;;
8001;SDS011;4046;48.774;8.732;2023-08-21T14:59:11;5.53;;;5.23;;
8001;SDS011;4046;48.774;8.732;2023-08-21T15:01:39;5.40;;;5.10;;
8001;SDS011;4046;48.774;8.732;2023-08-21T15:04:06;5.73;;;5.33;;
8001;SDS011;4046;48.774;8.732;2023-08-21T15:06:32;6.37;;;5.97;;
8001;SDS011;4046;48.774;8.732;2023-08-21T15:08:59;5.97;;;5.67;;
8001;SDS011;4046;48.774;8.732;2023-08-21T15:11:24;6.50;;;6.10;;
8001;SDS011;4046;48.774;8.732;2023-08-21T15:13:50;6.40;;;5.90;;
8001;SDS011;4046;48.774;8.732;2023-08-21T15:16:16;5.47;;;5.17;;
8001;SDS011;4046;48.774;8.732;2023-08-21T15:18:42;6.20;;;5.70;;
8001;SDS011;4046;48.774;8.732;2023-08-21T15:21:07;5.43;;;5.03;;